createdAt,value
2018-07-27T05:33:08.614Z,24.17
2018-07-27T05:35:37.880Z,24.38
2018-07-27T05:38:07.105Z,24.37
2018-07-27T05:40:36.181Z,24.35
2018-07-27T05:43:05.479Z,24.44
2018-07-27T05:45:34.635Z,24.40
2018-07-27T05:48:03.799Z,24.66
2018-07-27T05:50:33.245Z,24.98
2018-07-27T05:53:02.487Z,25.02
2018-07-27T05:55:31.875Z,24.75
2018-07-27T05:58:00.945Z,24.93
2018-07-27T06:00:30.102Z,25.12
2018-07-27T06:02:59.236Z,25.18
2018-07-27T06:05:28.280Z,25.25
2018-07-27T06:07:57.465Z,25.23
2018-07-27T06:10:26.534Z,25.39
2018-07-27T06:12:55.593Z,25.49
2018-07-27T06:15:24.909Z,25.60
2018-07-27T06:17:54.160Z,25.51
2018-07-27T06:20:24.863Z,25.44
2018-07-27T06:22:54.096Z,25.54
2018-07-27T06:25:23.200Z,25.78
2018-07-27T06:27:52.400Z,25.95
2018-07-27T06:30:22.402Z,26.20
2018-07-27T06:32:51.623Z,26.29
2018-07-27T06:35:20.844Z,26.09
2018-07-27T06:37:50.155Z,26.30
2018-07-27T06:40:19.330Z,26.39
2018-07-27T06:42:48.414Z,26.36
2018-07-27T06:45:17.541Z,26.30
2018-07-27T06:47:47.201Z,26.27
2018-07-27T06:50:16.360Z,26.34
2018-07-27T06:52:45.562Z,26.51
2018-07-27T06:55:18.920Z,26.52
2018-07-27T06:57:48.098Z,43.48
2018-07-27T12:50:36.593Z,31.33
2018-07-27T12:53:05.918Z,31.27
2018-07-27T12:55:36.049Z,31.01
2018-07-27T12:58:05.647Z,30.98
2018-07-27T13:00:34.904Z,31.13
2018-07-27T13:03:11.072Z,31.32
2018-07-27T13:05:46.257Z,31.10
2018-07-27T13:08:15.731Z,31.07
2018-07-27T13:27:00.084Z,31.90
2018-07-27T13:29:34.227Z,31.78
2018-07-27T13:32:03.871Z,31.97
2018-07-27T13:37:06.919Z,32.31
2018-07-27T13:39:36.612Z,32.17
2018-07-27T13:42:06.749Z,32.06
2018-07-27T13:44:37.330Z,32.18
2018-07-27T13:47:07.552Z,32.24
2018-07-27T13:49:36.854Z,32.35
2018-07-27T13:52:06.100Z,32.07
2018-07-27T13:54:35.834Z,32.06
2018-07-27T13:57:05.210Z,32.40
2018-07-27T13:59:35.377Z,32.25
2018-07-27T14:15:05.533Z,32.10
2018-07-27T14:17:35.076Z,32.18
2018-07-27T14:20:04.799Z,32.44
2018-07-27T14:22:33.989Z,32.64
2018-07-27T14:25:03.344Z,32.86
2018-07-27T14:27:33.316Z,32.69
2018-07-27T14:30:03.238Z,32.76
2018-07-27T14:32:32.405Z,32.92
2018-07-27T14:35:02.144Z,32.78
2018-07-27T14:37:32.320Z,32.45
2018-07-27T14:40:01.823Z,32.26
2018-07-27T14:42:31.164Z,32.23
2018-07-27T14:45:00.401Z,31.94
2018-07-27T14:47:29.994Z,32.02
2018-07-27T14:49:59.368Z,32.15
2018-07-27T14:52:28.605Z,32.11
2018-07-27T14:54:57.733Z,32.55
2018-07-27T14:57:33.004Z,32.90
2018-07-27T15:00:02.764Z,33.02
2018-07-27T15:02:32.476Z,33.33
2018-07-27T15:05:01.797Z,33.47
2018-07-27T15:07:31.112Z,33.38
2018-07-27T15:10:02.682Z,33.34
2018-07-27T15:12:32.165Z,33.17
2018-07-27T15:15:01.465Z,32.90
2018-07-27T15:17:36.675Z,32.83
2018-07-27T15:20:07.944Z,32.31
2018-07-27T15:31:22.246Z,32.61
2018-07-27T15:33:51.514Z,32.89
2018-07-27T15:36:22.110Z,33.15
2018-07-27T15:38:51.722Z,33.29
2018-07-27T15:41:21.070Z,33.39
2018-07-27T15:43:55.132Z,33.57
2018-07-27T15:46:24.465Z,33.79
2018-07-27T15:48:53.710Z,33.22
2018-07-27T15:51:23.147Z,32.83
2018-07-27T15:53:54.025Z,32.26
2018-07-27T15:56:23.190Z,31.95
2018-07-27T15:58:53.571Z,32.09
2018-07-27T16:01:24.477Z,32.74
2018-07-27T16:03:53.783Z,34.01
2018-07-27T16:06:22.883Z,34.68
2018-07-27T16:08:51.990Z,35.41
2018-07-27T16:11:21.093Z,36.49
2018-07-27T16:13:50.245Z,37.84
2018-07-27T16:16:25.765Z,37.67
2018-07-27T16:18:58.978Z,37.17
2018-07-27T16:21:28.694Z,37.91
2018-07-27T16:23:58.730Z,37.50
2018-07-27T16:29:03.918Z,36.10
2018-07-27T16:31:36.604Z,35.57
2018-07-27T16:34:11.555Z,35.21
2018-07-27T16:36:41.846Z,34.94
2018-07-27T16:39:15.296Z,33.76
2018-07-27T16:41:45.160Z,34.11
2018-07-27T16:44:14.741Z,33.47
2018-07-27T16:46:43.904Z,33.17
2018-07-27T16:49:13.286Z,32.93
2018-07-27T16:51:42.504Z,32.96
2018-07-27T16:54:11.802Z,33.50
2018-07-27T16:56:41.020Z,33.35
2018-07-27T16:59:10.375Z,33.08
2018-07-27T17:01:39.874Z,33.16
2018-07-27T17:04:09.785Z,33.06
2018-07-27T17:06:47.152Z,32.76
2018-07-27T17:09:16.318Z,32.84
2018-07-27T17:11:45.449Z,32.67
2018-07-27T17:14:14.568Z,32.34
2018-07-27T17:16:43.711Z,32.29
2018-07-27T17:19:12.879Z,31.67
2018-07-27T17:21:41.976Z,31.40
2018-07-27T17:24:11.122Z,31.46
2018-07-27T17:26:40.258Z,31.44
2018-07-27T17:29:09.646Z,31.20
2018-07-27T17:31:39.081Z,30.98
2018-07-27T17:34:08.999Z,30.88
2018-07-27T17:36:38.126Z,30.90
2018-07-27T17:39:09.703Z,30.39
2018-07-27T17:41:39.312Z,30.44
2018-07-27T17:44:16.252Z,30.42
2018-07-27T17:46:45.512Z,30.16
2018-07-27T17:49:14.904Z,29.96
2018-07-27T17:51:44.004Z,29.83
2018-07-27T17:54:14.430Z,29.87
2018-07-27T17:56:43.899Z,29.94
2018-07-27T17:59:13.217Z,29.82
2018-07-27T18:01:42.881Z,29.56
2018-07-27T18:04:11.989Z,29.59
2018-07-27T18:06:47.406Z,29.33
2018-07-27T18:09:17.378Z,29.47
2018-07-27T18:11:47.952Z,29.25
2018-07-27T18:14:19.116Z,29.30
2018-07-27T18:16:49.790Z,29.18
2018-07-27T18:19:22.643Z,29.12
2018-07-27T18:21:52.957Z,29.20
2018-07-27T18:24:22.232Z,29.06
2018-07-27T18:26:52.541Z,29.29
2018-07-27T18:29:21.763Z,28.99
2018-07-27T18:31:51.264Z,29.09
2018-07-27T18:34:20.525Z,29.04
2018-07-27T18:36:50.420Z,29.03
2018-07-27T18:39:20.039Z,29.02
2018-07-27T18:41:53.106Z,28.78
2018-07-27T18:44:22.300Z,28.72
2018-07-27T18:46:58.042Z,28.77
2018-07-27T18:49:27.098Z,28.66
2018-07-27T18:51:56.910Z,28.79
2018-07-27T18:54:26.389Z,29.01
2018-07-27T18:56:56.354Z,28.96
2018-07-27T18:59:26.594Z,28.85
2018-07-27T19:01:55.912Z,28.65
2018-07-27T19:04:25.738Z,28.73
2018-07-27T19:06:55.314Z,28.71
2018-07-27T19:09:24.425Z,28.71
2018-07-27T19:11:53.612Z,28.61
2018-07-27T19:14:22.801Z,28.69
2018-07-27T19:16:52.037Z,28.78
2018-07-27T19:19:21.778Z,28.58
2018-07-27T19:21:51.333Z,28.39
2018-07-27T19:24:20.546Z,28.32
2018-07-27T19:26:49.639Z,28.43
2018-07-27T19:29:24.405Z,28.50
2018-07-27T19:31:55.546Z,28.45
2018-07-27T19:34:24.658Z,28.41
2018-07-27T19:36:53.773Z,28.14
2018-07-27T19:39:23.003Z,28.12
2018-07-27T19:41:54.521Z,27.93
2018-07-27T19:44:30.183Z,28.00
2018-07-27T19:47:01.373Z,27.94
2018-07-27T19:49:30.999Z,28.07
2018-07-27T19:52:02.040Z,27.98
2018-07-27T19:54:31.652Z,27.80
2018-07-27T19:57:02.505Z,27.86
2018-07-27T19:59:32.070Z,28.07
2018-07-27T20:02:01.353Z,27.95
2018-07-27T20:04:30.998Z,27.57
2018-07-27T20:07:01.157Z,27.49
2018-07-27T20:09:32.494Z,27.40
2018-07-27T20:12:02.617Z,27.29
2018-07-27T20:14:32.833Z,27.16
2018-07-27T20:17:02.429Z,27.25
2018-07-27T20:19:32.399Z,27.16
2018-07-27T20:22:01.683Z,26.89
2018-07-27T20:24:32.247Z,26.87
2018-07-27T20:27:03.088Z,26.85
2018-07-27T20:29:34.329Z,26.74
2018-07-27T20:32:08.675Z,26.65
2018-07-27T20:47:39.065Z,26.66
2018-07-27T20:50:09.523Z,26.69
2018-07-27T20:52:38.782Z,26.70
2018-07-27T20:57:45.529Z,26.59
2018-07-27T21:00:16.252Z,26.55
2018-07-27T21:02:59.792Z,26.50
2018-07-27T21:05:29.905Z,26.62
2018-07-27T21:08:00.376Z,26.53
2018-07-27T21:23:30.193Z,26.53
2018-07-27T21:25:59.706Z,25.82
2018-07-27T21:28:28.941Z,25.67
2018-07-27T21:30:58.423Z,25.45
2018-07-27T21:33:32.588Z,25.42
2018-07-27T21:36:05.894Z,25.64
2018-07-27T21:38:35.360Z,25.67
2018-07-27T21:41:08.884Z,25.62
2018-07-27T21:56:38.531Z,25.39
2018-07-27T21:59:08.453Z,25.50
2018-07-27T22:01:39.304Z,25.32
2018-07-27T22:04:13.429Z,25.07
2018-07-27T22:06:46.554Z,24.95
2018-07-27T22:09:15.841Z,24.97
2018-07-27T22:11:46.773Z,24.99
2018-07-27T22:14:20.354Z,25.18
2018-07-27T22:16:56.204Z,25.29
2018-07-27T22:19:28.159Z,25.16
2018-07-27T22:22:03.628Z,25.22
2018-07-27T22:24:41.664Z,25.36
2018-07-27T22:30:14.542Z,25.04
2018-07-27T22:32:56.933Z,25.18
2018-07-27T22:35:26.952Z,25.24
2018-07-27T22:38:06.944Z,25.16
2018-07-27T22:40:38.765Z,25.05
2018-07-27T22:43:17.994Z,25.08
2018-07-27T22:45:55.250Z,24.97
2018-07-27T22:48:26.756Z,25.01
2018-07-27T22:51:00.524Z,24.85
2018-07-27T23:06:30.823Z,24.13
2018-07-27T23:09:01.596Z,24.09
2018-07-27T23:11:30.874Z,24.07
2018-07-27T23:16:38.387Z,23.98
2018-07-27T23:19:11.880Z,24.14
2018-07-27T23:21:41.182Z,24.36
2018-07-27T23:37:15.323Z,23.78
2018-07-27T23:39:44.903Z,23.84
2018-07-27T23:42:14.765Z,24.11
2018-07-27T23:44:44.717Z,23.84
2018-07-27T23:47:14.516Z,23.73
2018-07-27T23:49:43.742Z,23.66
2018-07-27T23:52:14.090Z,23.59
2018-07-27T23:54:49.943Z,23.68
2018-07-27T23:57:22.844Z,23.79
2018-07-27T23:59:51.980Z,23.88
